Pruden, TN (37851)

7:27 AM EST on March 02, 2015 (GMT -0500)
Middlesboro | Change Station
CLOSE
Current Station
Airport
Location: Middlesboro,
Elevation: 1155 ft
Nearby Weather Stations

Elev 1155 ft 36.61 °N, 83.74 °W | Updated 12 minutes ago

Overcast
Overcast
36 °F
Feels Like 31 °F
N
6
Wind Variable Wind from North

Today
High -- | Low -- °F
--% Chance of Precip.
Yesterday
High -- | Low -- °F
Precip. -- in
7:05 AM 6:30 PM
Waxing Gibbous, 91% visible
Pressure 30.41 in
Visibility 10.0 miles
Clouds Mostly Cloudy 1600 ft
Overcast 2100 ft
Windchill 31 °F
Dew Point 32 °F
Humidity 88%
Rainfall 0.22 in
Snow Depth Not available.
UV 0 out of 12
Pollen 2.70 out of 12
Air Quality Not available.
Flu Activity Not available.
METAR K1A6 021215Z AUTO 01005KT 10SM BKN016 OVC021 02/00 A3041 RMK AO2 T00210003

More Conditions Fewer Conditions

Pressure 30.41 in
Visibility 10.0 miles
Clouds Mostly Cloudy 1600 ft
Overcast 2100 ft
Windchill 31 °F
Dew Point 32 °F
Humidity 88%
Rainfall 0.22 in
Snow Depth Not available.
UV 0 out of 12
Pollen 2.70 out of 12
Air Quality Not available.
Flu Activity Not available.
METAR K1A6 021215Z AUTO 01005KT 10SM BKN016 OVC021 02/00 A3041 RMK AO2 T00210003

More Conditions Fewer Conditions

10-Day Weather Forecast

Almanac

Astronomy

Mar. 02, 2015 Rise Set
Actual Time
Civil Twilight
Nautical Twilight
Astronomical Twilight
Moon
Length of Visible Light
Length of Day
Tomorrow will be .
, % of the Moon is Illuminated

Today's Extremes

State Highs State Lows

Community

WunderPhotos

Upload Photos

1,801,772 photos uploaded!

WunderBlogs® & News

Nearby

Air Quality

  Air Quality AQ Index Pollutant
Not available.

Snow Depth

Station Depth Elevation

Earthquake Activity

City Distance Mag. Time & Date
Minimum magnitude displayed is 2.5.

Coastal Water Temperatures

Place Temperature

Nearby Weather Stations